createdAt,value
2022-12-23T00:01:05.031Z,130.32
2022-12-23T00:03:32.664Z,134.80
2022-12-23T00:06:00.244Z,118.05
2022-12-23T00:08:27.697Z,115.50
2022-12-23T00:10:56.659Z,119.47
2022-12-23T00:13:41.922Z,101.35
2022-12-23T00:16:14.164Z,100.30
2022-12-23T00:18:41.528Z,107.55
2022-12-23T00:21:13.843Z,124.05
2022-12-23T00:23:43.011Z,112.63
2022-12-23T00:26:24.431Z,126.43
2022-12-23T00:28:51.599Z,131.73
2022-12-23T00:31:19.341Z,109.13
2022-12-23T00:33:48.557Z,116.55
2022-12-23T00:36:21.100Z,107.10
2022-12-23T00:39:06.623Z,148.82
2022-12-23T00:41:51.936Z,131.43
2022-12-23T00:44:18.539Z,104.07
2022-12-23T00:46:44.990Z,105.88
2022-12-23T00:49:34.993Z,116.43
2022-12-23T00:52:02.016Z,94.85
2022-12-23T00:54:29.090Z,87.90
2022-12-23T00:56:55.538Z,84.25
2022-12-23T00:59:21.886Z,116.00
2022-12-23T01:02:06.848Z,111.93
2022-12-23T01:04:52.441Z,134.63
2022-12-23T01:07:19.085Z,109.93
2022-12-23T01:09:45.532Z,117.28
2022-12-23T01:12:11.966Z,131.85
2022-12-23T01:14:38.966Z,96.70
2022-12-23T01:17:07.475Z,102.95
2022-12-23T01:19:34.392Z,104.50
2022-12-23T01:22:00.763Z,114.75
2022-12-23T01:24:29.230Z,162.38
2022-12-23T01:26:55.637Z,112.25
2022-12-23T01:29:22.030Z,120.75
2022-12-23T01:31:48.482Z,177.83
2022-12-23T01:34:14.944Z,132.73
2022-12-23T01:36:41.432Z,157.63
2022-12-23T01:39:07.799Z,178.40
2022-12-23T01:41:53.151Z,180.70
2022-12-23T01:44:57.123Z,104.27
2022-12-23T01:47:29.164Z,91.68
2022-12-23T01:50:06.123Z,140.68
2022-12-23T01:52:34.484Z,132.98
2022-12-23T01:55:01.043Z,118.60
2022-12-23T01:57:27.977Z,96.70
2022-12-23T02:00:12.981Z,111.20
2022-12-23T02:03:00.632Z,98.00
2022-12-23T02:05:27.216Z,280.55
2022-12-23T02:08:13.081Z,195.60
2022-12-23T02:11:01.360Z,99.00
2022-12-23T02:14:10.239Z,106.90
2022-12-23T02:16:46.524Z,166.68
2022-12-23T02:19:51.896Z,136.43
2022-12-23T02:22:26.977Z,96.60
2022-12-23T02:25:29.078Z,137.70
2022-12-23T02:28:23.191Z,162.13
2022-12-23T02:31:01.159Z,113.18
2022-12-23T02:34:00.506Z,97.20
2022-12-23T02:36:40.841Z,222.43
2022-12-23T02:39:20.582Z,106.63
2022-12-23T02:41:57.186Z,133.80
2022-12-23T02:44:29.552Z,107.80
2022-12-23T02:47:04.218Z,144.98
2022-12-23T02:49:34.775Z,123.63
2022-12-23T02:52:05.596Z,160.97
2022-12-23T02:54:38.362Z,189.38
2022-12-23T02:57:07.543Z,98.00
2022-12-23T02:59:39.881Z,182.63
2022-12-23T03:02:06.406Z,139.38
2022-12-23T03:04:32.947Z,158.03
2022-12-23T03:07:05.885Z,138.15
2022-12-23T03:09:58.613Z,107.22
2022-12-23T03:12:52.595Z,159.50
2022-12-23T03:15:38.516Z,100.78
2022-12-23T03:18:05.004Z,105.23
2022-12-23T03:21:06.092Z,97.43
2022-12-23T03:23:38.610Z,95.45
2022-12-23T03:26:16.325Z,117.90
2022-12-23T03:28:52.030Z,108.22
2022-12-23T03:31:25.132Z,124.60
2022-12-23T03:33:58.117Z,172.90
2022-12-23T03:36:29.107Z,102.75
2022-12-23T03:38:57.177Z,119.55
2022-12-23T03:41:30.603Z,129.90
2022-12-23T03:44:08.985Z,130.90
2022-12-23T03:46:45.684Z,137.13
2022-12-23T03:49:17.419Z,117.70
2022-12-23T03:51:59.178Z,120.78
2022-12-23T03:54:36.935Z,141.85
2022-12-23T03:57:05.489Z,124.77
2022-12-23T03:59:38.366Z,163.00
2022-12-23T04:02:21.085Z,181.18
2022-12-23T04:05:06.237Z,106.70
2022-12-23T04:07:45.026Z,150.50
2022-12-23T04:10:13.315Z,143.47
2022-12-23T04:12:40.296Z,174.80
2022-12-23T04:15:12.566Z,210.30
2022-12-23T04:17:39.421Z,154.25
2022-12-23T04:20:07.013Z,210.35
2022-12-23T04:22:33.375Z,157.77
2022-12-23T04:24:59.725Z,219.50
2022-12-23T04:27:26.105Z,129.77
2022-12-23T04:29:52.813Z,123.25
2022-12-23T04:32:19.171Z,122.95
2022-12-23T04:34:45.562Z,114.30
2022-12-23T04:37:11.928Z,226.23
2022-12-23T04:39:38.272Z,117.88
2022-12-23T04:42:04.707Z,121.78
2022-12-23T04:44:31.069Z,182.20
2022-12-23T04:46:57.664Z,145.10
2022-12-23T04:49:24.184Z,169.80
2022-12-23T04:51:50.546Z,117.68
2022-12-23T04:54:16.918Z,131.85
2022-12-23T04:56:43.300Z,122.65
2022-12-23T04:59:10.348Z,171.40
2022-12-23T05:01:36.886Z,102.68
2022-12-23T05:04:03.381Z,192.55
2022-12-23T05:06:29.745Z,112.50
2022-12-23T05:08:56.186Z,129.13
2022-12-23T05:11:23.052Z,133.33
2022-12-23T05:13:49.448Z,99.95
2022-12-23T05:16:15.867Z,137.23
2022-12-23T05:18:42.355Z,169.57
2022-12-23T05:21:09.519Z,149.57
2022-12-23T05:23:36.067Z,172.53
2022-12-23T05:26:02.510Z,105.32
2022-12-23T05:28:29.426Z,130.43
2022-12-23T05:31:05.469Z,115.78
2022-12-23T05:33:32.524Z,114.80
2022-12-23T05:35:59.447Z,144.07
2022-12-23T05:38:26.226Z,127.80
2022-12-23T05:40:52.762Z,178.52
2022-12-23T05:43:19.283Z,124.28
2022-12-23T05:45:46.703Z,103.60
2022-12-23T05:48:13.443Z,139.40
2022-12-23T05:50:40.091Z,252.05
2022-12-23T05:53:07.104Z,107.97
2022-12-23T05:55:34.236Z,100.53
2022-12-23T05:58:00.774Z,148.07
2022-12-23T06:00:27.708Z,104.47
2022-12-23T06:02:54.601Z,112.05
2022-12-23T06:05:21.713Z,109.10
2022-12-23T06:07:48.142Z,124.05
2022-12-23T06:10:14.515Z,128.00
2022-12-23T06:12:40.873Z,103.33
2022-12-23T06:15:08.407Z,100.35
2022-12-23T06:17:34.824Z,184.52
2022-12-23T06:20:01.300Z,128.90
2022-12-23T06:22:27.746Z,103.35
2022-12-23T06:24:54.173Z,121.83
2022-12-23T06:27:20.589Z,113.88
2022-12-23T06:29:47.160Z,118.95
2022-12-23T06:32:13.589Z,92.88
2022-12-23T06:34:40.150Z,136.90
2022-12-23T06:37:06.833Z,98.33
2022-12-23T06:39:33.513Z,97.32
2022-12-23T06:41:59.887Z,120.00
2022-12-23T06:44:26.271Z,117.45
2022-12-23T06:46:52.613Z,158.63
2022-12-23T06:49:18.971Z,163.07
2022-12-23T06:51:45.339Z,227.30
2022-12-23T06:54:12.116Z,113.05
2022-12-23T06:56:38.981Z,126.28
2022-12-23T06:59:05.719Z,196.20
2022-12-23T07:01:32.218Z,182.87
2022-12-23T07:03:58.671Z,163.85
2022-12-23T07:06:25.090Z,177.30
2022-12-23T07:08:51.496Z,243.05
2022-12-23T07:11:18.531Z,181.25
2022-12-23T07:13:46.289Z,178.63
2022-12-23T07:16:12.846Z,250.88
2022-12-23T07:18:39.233Z,202.77
2022-12-23T07:21:08.838Z,124.97
2022-12-23T07:23:39.841Z,75.90
2022-12-23T07:26:06.207Z,83.43
2022-12-23T07:28:32.588Z,107.32
2022-12-23T07:30:58.969Z,94.07
2022-12-23T07:33:25.380Z,85.45
2022-12-23T07:35:51.744Z,76.18
2022-12-23T07:38:18.087Z,79.37
2022-12-23T07:40:48.773Z,125.05
2022-12-23T07:43:15.144Z,78.85
2022-12-23T07:45:41.702Z,101.97
2022-12-23T07:48:08.725Z,137.40
2022-12-23T07:50:35.210Z,146.83
2022-12-23T07:53:01.584Z,168.27
2022-12-23T07:55:27.935Z,86.13
2022-12-23T07:57:54.354Z,163.25
2022-12-23T08:00:21.117Z,96.38
2022-12-23T08:02:48.320Z,127.33
2022-12-23T08:05:15.211Z,81.03
2022-12-23T08:07:42.100Z,108.85
2022-12-23T08:10:09.131Z,99.28
2022-12-23T08:12:35.538Z,85.40
2022-12-23T08:15:01.989Z,77.97
2022-12-23T08:17:30.251Z,69.70
2022-12-23T08:19:57.022Z,77.00
2022-12-23T08:22:24.106Z,89.55
2022-12-23T08:24:50.539Z,109.22
2022-12-23T08:27:16.966Z,80.63
2022-12-23T08:29:43.345Z,55.65
2022-12-23T08:32:09.816Z,45.03
2022-12-23T08:34:36.709Z,87.85
2022-12-23T08:37:03.281Z,70.60
2022-12-23T08:39:29.671Z,61.00
2022-12-23T08:41:56.124Z,76.28
2022-12-23T08:44:22.958Z,92.25
2022-12-23T08:46:49.400Z,63.63
2022-12-23T08:49:15.892Z,90.82
2022-12-23T08:51:42.523Z,87.47
2022-12-23T08:54:10.142Z,63.20
2022-12-23T08:56:40.263Z,59.28
2022-12-23T08:59:07.210Z,75.32
2022-12-23T09:01:34.977Z,64.60
2022-12-23T09:04:04.045Z,64.53
2022-12-23T09:06:34.578Z,58.58
2022-12-23T09:09:01.092Z,65.90
2022-12-23T09:11:29.164Z,67.78
2022-12-23T09:13:56.748Z,58.58
2022-12-23T09:16:23.239Z,75.33
2022-12-23T09:18:49.733Z,55.83
2022-12-23T09:21:21.088Z,66.60
2022-12-23T09:23:48.300Z,67.93
2022-12-23T09:26:26.601Z,64.50
2022-12-23T09:28:53.970Z,62.17
2022-12-23T09:31:21.294Z,51.63
2022-12-23T09:33:50.377Z,74.93
2022-12-23T09:36:17.656Z,47.05
2022-12-23T09:38:44.398Z,51.80
2022-12-23T09:41:29.019Z,50.60
2022-12-23T09:44:20.104Z,53.45
2022-12-23T09:46:55.298Z,56.05
2022-12-23T09:49:23.757Z,50.28
2022-12-23T09:51:54.131Z,48.70
2022-12-23T09:54:28.888Z,50.27
2022-12-23T09:57:00.347Z,44.00
2022-12-23T09:59:51.326Z,49.75
2022-12-23T10:02:44.448Z,46.35
2022-12-23T10:05:24.289Z,46.45
2022-12-23T10:07:55.808Z,37.97
2022-12-23T10:10:34.988Z,41.50
2022-12-23T10:13:05.903Z,35.05
2022-12-23T10:15:41.272Z,38.25
2022-12-23T10:18:20.215Z,46.78
2022-12-23T10:21:08.628Z,37.17
2022-12-23T10:23:38.239Z,38.63
2022-12-23T10:26:20.239Z,39.33
2022-12-23T10:28:46.742Z,36.95
2022-12-23T10:34:26.939Z,35.73
2022-12-23T10:37:17.217Z,37.10
2022-12-23T10:39:57.129Z,38.00
2022-12-23T10:42:48.309Z,33.75
2022-12-23T10:46:11.890Z,36.88
2022-12-23T10:49:21.427Z,27.20
2022-12-23T10:51:55.223Z,27.50
2022-12-23T10:54:28.044Z,28.05
2022-12-23T10:56:54.992Z,30.00
2022-12-23T10:59:31.849Z,28.63
2022-12-23T11:02:15.807Z,30.40
2022-12-23T11:04:49.123Z,26.67
2022-12-23T11:07:43.899Z,30.98
2022-12-23T11:10:19.352Z,28.15
2022-12-23T11:12:49.377Z,30.50
2022-12-23T11:15:29.122Z,35.57
2022-12-23T11:18:13.712Z,35.22
2022-12-23T11:20:42.445Z,29.25
2022-12-23T11:23:26.566Z,31.52
2022-12-23T11:26:02.429Z,35.10
2022-12-23T11:28:30.575Z,32.03
2022-12-23T11:31:05.429Z,33.63
2022-12-23T11:34:06.057Z,31.45
2022-12-23T11:36:34.133Z,31.70
2022-12-23T11:39:03.145Z,30.83
2022-12-23T11:41:38.986Z,31.90
2022-12-23T11:44:21.979Z,29.20
2022-12-23T11:46:49.415Z,28.25
2022-12-23T11:49:22.216Z,33.72
2022-12-23T11:52:10.267Z,30.42
2022-12-23T11:54:38.836Z,33.37
2022-12-23T11:57:09.880Z,30.67
2022-12-23T11:59:51.389Z,32.47
2022-12-23T12:02:31.359Z,35.20
2022-12-23T12:05:01.720Z,33.40
2022-12-23T12:07:30.278Z,31.73
2022-12-23T12:10:01.150Z,35.55
2022-12-23T12:12:29.768Z,33.72
2022-12-23T12:15:00.348Z,29.77
2022-12-23T12:17:26.646Z,31.27
2022-12-23T12:19:59.720Z,32.47
2022-12-23T12:22:51.856Z,32.67
2022-12-23T12:25:22.330Z,32.17
2022-12-23T12:28:02.840Z,26.83
2022-12-23T12:30:43.568Z,28.88
2022-12-23T12:33:23.300Z,31.50
2022-12-23T12:36:05.106Z,28.92
2022-12-23T12:38:33.203Z,33.20
2022-12-23T12:41:18.141Z,29.40
2022-12-23T12:43:52.495Z,28.83
2022-12-23T12:46:34.225Z,26.50
2022-12-23T12:49:09.410Z,29.70
2022-12-23T12:52:03.380Z,25.02
2022-12-23T12:54:49.011Z,28.35
2022-12-23T12:57:18.531Z,29.30
2022-12-23T12:59:47.769Z,29.07
2022-12-23T13:02:36.352Z,32.45
2022-12-23T13:05:09.200Z,34.67
2022-12-23T13:07:55.702Z,36.58
2022-12-23T13:10:52.181Z,33.78
2022-12-23T13:13:32.557Z,34.57
2022-12-23T13:16:16.928Z,39.45
2022-12-23T13:18:55.213Z,37.47
2022-12-23T13:21:21.522Z,36.53
2022-12-23T13:24:09.833Z,38.20
2022-12-23T13:26:51.458Z,37.30
2022-12-23T13:29:57.736Z,36.35
2022-12-23T13:32:43.149Z,33.05
2022-12-23T13:35:12.481Z,38.33
2022-12-23T13:37:57.234Z,38.45
2022-12-23T13:40:38.134Z,40.83
2022-12-23T13:43:26.096Z,39.17
2022-12-23T13:45:55.138Z,42.90
2022-12-23T13:48:43.666Z,46.85
2022-12-23T13:51:44.437Z,46.67
2022-12-23T13:54:38.349Z,38.87
2022-12-23T13:57:23.782Z,43.78
2022-12-23T14:00:29.082Z,49.72
2022-12-23T14:03:00.011Z,51.15
2022-12-23T14:05:41.942Z,49.30
2022-12-23T14:08:23.331Z,57.40
2022-12-23T14:11:12.514Z,55.15
2022-12-23T14:13:51.076Z,56.28
2022-12-23T14:16:20.495Z,62.65
2022-12-23T14:19:20.868Z,56.25
2022-12-23T14:21:47.151Z,60.47
2022-12-23T14:25:02.640Z,61.47
2022-12-23T14:27:54.035Z,62.40
2022-12-23T14:30:35.766Z,61.00
2022-12-23T14:33:16.221Z,63.70
2022-12-23T14:35:43.078Z,61.20
2022-12-23T14:38:22.895Z,75.88
2022-12-23T14:40:55.077Z,69.60
2022-12-23T14:43:27.236Z,64.03
2022-12-23T14:46:04.977Z,69.78
2022-12-23T14:48:34.363Z,60.40
2022-12-23T14:51:09.952Z,60.08
2022-12-23T14:53:57.466Z,65.50
2022-12-23T14:56:39.370Z,67.90
2022-12-23T14:59:31.481Z,59.38
2022-12-23T15:02:01.751Z,65.10
2022-12-23T15:04:47.819Z,70.35
2022-12-23T15:07:40.651Z,59.97
2022-12-23T15:10:07.236Z,68.65
2022-12-23T15:12:40.521Z,72.43
2022-12-23T15:15:17.656Z,67.73
2022-12-23T15:17:44.647Z,69.68
2022-12-23T15:20:11.058Z,72.63
2022-12-23T15:22:39.003Z,73.53
2022-12-23T15:25:18.321Z,78.97
2022-12-23T15:27:44.868Z,71.93
2022-12-23T15:30:13.594Z,77.43
2022-12-23T15:32:43.005Z,76.50
2022-12-23T15:35:16.136Z,73.55
2022-12-23T15:37:42.560Z,72.05
2022-12-23T15:40:24.235Z,65.70
2022-12-23T15:42:50.656Z,65.05
2022-12-23T15:45:22.814Z,66.30
2022-12-23T15:47:50.269Z,69.35
2022-12-23T15:50:18.693Z,53.25
2022-12-23T15:52:47.317Z,51.90
2022-12-23T15:55:27.757Z,59.35
2022-12-23T15:57:54.923Z,63.05
2022-12-23T16:00:23.143Z,55.22
2022-12-23T16:03:01.145Z,53.03
2022-12-23T16:05:36.578Z,52.77
2022-12-23T16:08:30.814Z,54.85
2022-12-23T16:11:16.239Z,49.92
2022-12-23T16:14:19.987Z,54.42
2022-12-23T16:16:46.558Z,50.50
2022-12-23T16:19:45.986Z,53.33
2022-12-23T16:22:29.176Z,55.13
2022-12-23T16:25:22.904Z,58.38
2022-12-23T16:27:56.795Z,54.97
2022-12-23T16:30:33.302Z,54.88
2022-12-23T16:33:02.918Z,55.03
2022-12-23T16:35:42.993Z,52.13
2022-12-23T16:38:26.158Z,57.35
2022-12-23T16:40:56.775Z,65.72
2022-12-23T16:43:24.867Z,63.00
2022-12-23T16:45:56.510Z,51.60
2022-12-23T16:48:31.334Z,55.72
2022-12-23T16:50:58.966Z,56.92
2022-12-23T16:53:25.591Z,54.63
2022-12-23T16:55:56.808Z,52.78
2022-12-23T16:58:26.505Z,51.57
2022-12-23T17:00:53.093Z,53.33
2022-12-23T17:03:20.570Z,53.35
2022-12-23T17:05:48.169Z,51.22
2022-12-23T17:08:14.917Z,52.65
2022-12-23T17:10:44.412Z,49.90
2022-12-23T17:13:17.375Z,47.60
2022-12-23T17:15:44.683Z,48.30
2022-12-23T17:18:16.821Z,47.22
2022-12-23T17:20:45.683Z,44.25
2022-12-23T17:23:30.985Z,46.00
2022-12-23T17:25:57.471Z,44.83
2022-12-23T17:28:28.874Z,45.53
2022-12-23T17:30:56.080Z,48.35
2022-12-23T17:33:26.971Z,49.50
2022-12-23T17:35:53.536Z,44.37
2022-12-23T17:38:19.984Z,42.67
2022-12-23T17:40:47.428Z,45.53
2022-12-23T17:43:16.624Z,40.08
2022-12-23T17:45:43.996Z,43.15
2022-12-23T17:48:17.967Z,40.07
2022-12-23T17:50:47.506Z,43.65
2022-12-23T17:53:16.133Z,41.75
2022-12-23T17:55:42.501Z,40.67
2022-12-23T17:58:09.088Z,44.38
2022-12-23T18:00:37.037Z,44.00
2022-12-23T18:03:07.498Z,50.85
2022-12-23T18:05:36.162Z,48.22
2022-12-23T18:08:03.394Z,45.05
2022-12-23T18:10:33.526Z,46.55
2022-12-23T18:13:02.482Z,42.93
2022-12-23T18:15:43.326Z,41.35
2022-12-23T18:18:20.559Z,37.17
2022-12-23T18:20:55.967Z,42.80
2022-12-23T18:23:25.705Z,35.95
2022-12-23T18:25:52.168Z,32.93
2022-12-23T18:28:18.678Z,32.50
2022-12-23T18:30:45.318Z,33.60
2022-12-23T18:33:12.679Z,37.40
2022-12-23T18:35:43.077Z,39.22
2022-12-23T18:38:10.536Z,40.77
2022-12-23T18:40:37.985Z,31.42
2022-12-23T18:43:04.783Z,32.75
2022-12-23T18:45:37.613Z,36.70
2022-12-23T18:48:07.023Z,33.28
2022-12-23T18:50:34.865Z,37.77
2022-12-23T18:53:02.029Z,35.00
2022-12-23T18:55:30.331Z,37.38
2022-12-23T18:57:58.697Z,39.72
2022-12-23T19:00:27.823Z,40.38
2022-12-23T19:02:54.977Z,38.67
2022-12-23T19:05:27.448Z,41.60
2022-12-23T19:07:56.067Z,38.70
2022-12-23T19:10:28.826Z,43.03
2022-12-23T19:12:56.582Z,53.55
2022-12-23T19:15:23.373Z,51.07
2022-12-23T19:17:52.581Z,54.30
2022-12-23T19:20:20.160Z,50.90
2022-12-23T19:22:47.610Z,51.53
2022-12-23T19:25:17.792Z,56.47
2022-12-23T19:27:45.206Z,53.27
2022-12-23T19:30:15.170Z,46.60
2022-12-23T19:32:41.594Z,56.13
2022-12-23T19:35:11.924Z,55.58
2022-12-23T19:37:38.441Z,53.42
2022-12-23T19:40:06.086Z,57.10
2022-12-23T19:42:33.932Z,55.75
2022-12-23T19:45:00.788Z,55.70
2022-12-23T19:47:27.384Z,57.17
2022-12-23T19:49:53.789Z,59.10
2022-12-23T19:52:20.204Z,50.23
2022-12-23T19:54:46.626Z,57.65
2022-12-23T19:57:13.235Z,56.67
2022-12-23T19:59:39.704Z,54.63
2022-12-23T20:02:06.612Z,51.40
2022-12-23T20:04:33.123Z,50.20
2022-12-23T20:06:59.479Z,44.88
2022-12-23T20:09:25.900Z,47.03
2022-12-23T20:11:52.330Z,44.42
2022-12-23T20:14:19.475Z,46.88
2022-12-23T20:16:45.969Z,42.40
2022-12-23T20:19:12.345Z,49.72
2022-12-23T20:21:38.733Z,51.42
2022-12-23T20:24:06.290Z,45.60
2022-12-23T20:26:33.133Z,41.47
2022-12-23T20:28:59.658Z,48.60
2022-12-23T20:31:31.570Z,42.53
2022-12-23T20:33:59.032Z,40.40
2022-12-23T20:36:28.404Z,48.05
2022-12-23T20:38:56.005Z,49.10
2022-12-23T20:41:25.645Z,41.70
2022-12-23T20:44:23.813Z,44.30
2022-12-23T20:46:39.139Z,46.88
2022-12-23T20:49:05.594Z,42.35
2022-12-23T20:51:32.020Z,47.47
2022-12-23T20:53:59.887Z,37.67
2022-12-23T20:56:27.767Z,45.53
2022-12-23T20:58:54.933Z,46.00
2022-12-23T21:01:24.470Z,41.60
2022-12-23T21:03:51.894Z,40.67
2022-12-23T21:06:18.883Z,41.30
2022-12-23T21:08:45.314Z,46.25
2022-12-23T21:11:11.909Z,44.15
2022-12-23T21:13:40.257Z,43.90
2022-12-23T21:16:09.203Z,42.13
2022-12-23T21:18:35.948Z,43.40
2022-12-23T21:21:04.789Z,43.42
2022-12-23T21:23:31.968Z,49.17
2022-12-23T21:26:25.905Z,42.75
2022-12-23T21:28:54.423Z,44.95
2022-12-23T21:31:23.124Z,46.03
2022-12-23T21:33:50.987Z,43.97
2022-12-23T21:36:20.715Z,45.92
2022-12-23T21:38:48.450Z,44.47
2022-12-23T21:41:18.138Z,49.55
2022-12-23T21:43:44.808Z,51.63
2022-12-23T21:46:14.468Z,46.58
2022-12-23T21:48:41.555Z,48.50
2022-12-23T21:51:08.136Z,43.72
2022-12-23T21:53:35.790Z,45.88
2022-12-23T21:56:08.162Z,46.53
2022-12-23T21:58:35.004Z,44.42
2022-12-23T22:01:10.271Z,49.88
2022-12-23T22:03:37.063Z,42.55
2022-12-23T22:06:11.826Z,42.45
2022-12-23T22:08:39.047Z,47.20
2022-12-23T22:11:13.464Z,45.78
2022-12-23T22:13:41.577Z,43.70
2022-12-23T22:16:13.528Z,41.28
2022-12-23T22:18:40.090Z,46.47
2022-12-23T22:21:12.874Z,43.33
2022-12-23T22:23:39.676Z,47.17
2022-12-23T22:26:07.236Z,42.38
2022-12-23T22:28:35.967Z,39.88
2022-12-23T22:31:16.455Z,42.15
2022-12-23T22:33:43.335Z,40.20
2022-12-23T22:36:15.007Z,48.92
2022-12-23T22:38:42.535Z,43.28
2022-12-23T22:41:10.705Z,40.20
2022-12-23T22:43:38.124Z,42.28
2022-12-23T22:46:04.979Z,41.80
2022-12-23T22:48:31.658Z,44.28
2022-12-23T22:51:05.108Z,45.55
2022-12-23T22:53:32.405Z,42.50
2022-12-23T22:55:59.922Z,37.08
2022-12-23T22:58:27.717Z,42.57
2022-12-23T23:00:54.361Z,40.22
2022-12-23T23:03:21.004Z,40.50
2022-12-23T23:06:09.855Z,41.83
2022-12-23T23:08:36.335Z,43.13
2022-12-23T23:11:04.890Z,39.43
2022-12-23T23:13:34.771Z,38.97
2022-12-23T23:16:02.330Z,41.83
2022-12-23T23:18:30.100Z,37.88
2022-12-23T23:20:56.835Z,37.67
2022-12-23T23:23:23.294Z,40.00
2022-12-23T23:25:49.720Z,39.97
2022-12-23T23:28:16.451Z,35.67
2022-12-23T23:30:42.896Z,41.28
2022-12-23T23:33:10.041Z,38.63
2022-12-23T23:35:37.183Z,39.83
2022-12-23T23:38:03.600Z,35.78
2022-12-23T23:40:30.025Z,36.13
2022-12-23T23:42:56.428Z,35.75
2022-12-23T23:45:23.053Z,39.63
2022-12-23T23:47:49.443Z,37.87
2022-12-23T23:50:15.924Z,39.30
2022-12-23T23:52:42.299Z,35.90
2022-12-23T23:55:09.262Z,36.05
2022-12-23T23:57:35.840Z,36.65
